Time;durP1;ratioP1;P1;durP2;ratioP2;P2;SDS_P1;SDS_P2;PMS_P1;PMS_P2;Temp;Humidity;BMP_temperature;BMP_pressure;BME280_temperature;BME280_humidity;BME280_pressure;Samples;Min_cycle;Max_cycle;Signal;HPM_P1;HPM_P2
2022/04/29 00:00:51;;;;;;;26.77;13.43;;;;;;;5.15;70.08;100487.53;5029918;28;20025;-84
2022/04/29 00:03:18;;;;;;;24.05;13.05;;;;;;;5.10;69.70;100476.59;5037865;28;20042;-83
2022/04/29 00:05:46;;;;;;;25.92;12.82;;;;;;;4.98;70.40;100479.41;5038470;28;20633;-84
2022/04/29 00:08:13;;;;;;;25.98;12.98;;;;;;;4.93;70.43;100480.19;5038401;28;20034;-84
2022/04/29 00:10:40;;;;;;;;;;;;;;;5.00;70.32;100488.13;5037709;28;20046;-86
2022/04/29 00:13:10;;;;;;;28.27;13.40;;;;;;;4.80;70.45;100456.13;5021040;28;20485;-86
2022/04/29 00:15:37;;;;;;;31.15;13.95;;;;;;;4.87;70.22;100477.63;5035568;28;20050;-85
2022/04/29 00:18:04;;;;;;;30.73;14.65;;;;;;;4.87;70.41;100486.56;5016146;28;20065;-84
2022/04/29 00:20:30;;;;;;;28.20;14.07;;;;;;;4.88;70.38;100474.66;5018594;28;20173;-81
2022/04/29 00:22:56;;;;;;;31.88;15.02;;;;;;;5.02;69.97;100482.44;5016250;28;20049;-85
2022/04/29 00:25:22;;;;;;;33.17;15.05;;;;;;;4.85;69.32;100455.38;5015616;28;20112;-84
2022/04/29 00:27:49;;;;;;;31.08;15.55;;;;;;;4.89;69.87;100473.59;5016548;28;20033;-83
2022/04/29 00:30:16;;;;;;;37.50;16.38;;;;;;;4.77;70.05;100459.31;5015896;28;20053;-88
2022/04/29 00:32:45;;;;;;;37.22;15.63;;;;;;;4.75;70.15;100449.78;5020918;28;20083;-87
2022/04/29 00:35:12;;;;;;;31.33;15.75;;;;;;;4.93;69.79;100474.75;5016709;28;20049;-84
2022/04/29 00:37:51;;;;;;;32.05;17.10;;;;;;;4.86;70.08;100481.38;5016702;28;20515;-84
2022/04/29 00:40:20;;;;;;;34.00;16.58;;;;;;;4.78;70.14;100470.97;5014712;28;20121;-89
2022/04/29 00:42:47;;;;;;;34.70;15.82;;;;;;;4.63;70.68;100464.22;4999624;28;20042;-84
2022/04/29 00:45:16;;;;;;;33.83;16.88;;;;;;;4.68;70.66;100477.03;5015040;28;20121;-84
2022/04/29 00:47:43;;;;;;;39.25;16.45;;;;;;;4.68;70.62;100482.47;5015055;28;20042;-88
2022/04/29 00:50:11;;;;;;;34.67;15.68;;;;;;;4.57;70.31;100457.09;5014422;28;20129;-84
2022/04/29 00:52:43;;;;;;;33.15;16.45;;;;;;;4.72;70.27;100481.72;5014576;28;20606;-87
2022/04/29 00:55:11;;;;;;;40.58;17.48;;;;;;;4.60;70.85;100480.97;4981164;28;20077;-84
2022/04/29 00:57:52;;;;;;;33.53;16.77;;;;;;;4.58;70.30;100477.69;5013367;28;20066;-87
2022/04/29 01:00:20;;;;;;;35.30;16.75;;;;;;;4.46;70.45;100455.25;5015206;28;20491;-84
2022/04/29 01:02:51;;;;;;;32.85;16.65;;;;;;;4.42;70.19;100449.53;5013681;28;20125;-85
2022/04/29 01:05:22;;;;;;;37.75;17.85;;;;;;;4.51;70.57;100476.22;5013457;28;20049;-84
2022/04/29 01:07:49;;;;;;;40.63;18.20;;;;;;;4.33;71.14;100461.81;5014470;28;20091;-84
2022/04/29 01:10:20;;;;;;;39.33;18.02;;;;;;;4.29;71.52;100457.94;5012870;28;20077;-84
2022/04/29 01:12:50;;;;;;;50.72;18.65;;;;;;;4.40;71.80;100473.31;5014457;28;20042;-87
2022/04/29 01:15:18;;;;;;;42.65;19.50;;;;;;;4.32;71.79;100462.88;5013515;28;20062;-86
2022/04/29 01:17:47;;;;;;;38.58;18.75;;;;;;;4.30;72.21;100473.13;4996701;28;20420;-83
2022/04/29 01:20:17;;;;;;;38.40;18.73;;;;;;;4.27;71.85;100470.06;5013837;28;20103;-83
2022/04/29 01:22:44;;;;;;;39.38;19.25;;;;;;;4.36;72.12;100474.84;5014509;28;20041;-83
2022/04/29 01:25:12;;;;;;;43.83;20.80;;;;;;;4.36;72.06;100477.56;5012679;28;20100;-85
2022/04/29 01:27:44;;;;;;;41.97;19.10;;;;;;;4.28;72.28;100482.56;5012694;28;20547;-85
2022/04/29 01:30:13;;;;;;;45.67;19.63;;;;;;;4.19;72.48;100476.72;5013086;28;20046;-84
2022/04/29 01:32:40;;;;;;;43.20;18.55;;;;;;;4.01;72.28;100439.84;5012915;28;20499;-85
2022/04/29 01:35:09;;;;;;;42.33;19.02;;;;;;;4.15;72.52;100475.56;5015440;28;20096;-85
2022/04/29 01:37:36;;;;;;;42.58;19.73;;;;;;;3.97;72.91;100450.34;5013681;28;20089;-84
2022/04/29 01:40:05;;;;;;;44.88;20.02;;;;;;;4.09;72.68;100477.34;5013279;28;20411;-84
2022/04/29 01:42:32;;;;;;;44.05;19.35;;;;;;;4.08;72.69;100466.78;5013823;28;20100;-84
2022/04/29 01:44:59;;;;;;;40.65;19.80;;;;;;;4.09;72.63;100466.50;5013763;28;20056;-84
2022/04/29 01:47:26;;;;;;;44.15;19.88;;;;;;;4.11;72.44;100471.69;5012583;28;20042;-86
2022/04/29 01:50:19;;;;;;;45.38;19.40;;;;;;;4.03;71.87;100445.00;5013452;28;20442;-84
2022/04/29 01:52:46;;;;;;;49.67;21.13;;;;;;;4.10;71.94;100464.63;5013271;28;20045;-83
2022/04/29 01:55:13;;;;;;;45.20;19.95;;;;;;;3.99;71.87;100444.69;5013192;28;20108;-86
2022/04/29 01:57:43;;;;;;;52.67;19.70;;;;;;;3.96;72.11;100442.44;5012954;28;20380;-87
2022/04/29 02:00:12;;;;;;;40.60;18.67;;;;;;;4.06;72.25;100482.41;4995559;28;20080;-84
2022/04/29 02:02:41;;;;;;;45.80;19.55;;;;;;;3.96;72.73;100470.31;5012957;28;20451;-83
2022/04/29 02:05:08;;;;;;;;;;;;;;;3.98;72.88;100476.31;4995877;28;20064;-84
2022/04/29 02:07:35;;;;;;;45.40;18.48;;;;;;;3.89;72.43;100445.31;5013770;28;19921;-84
2022/04/29 02:10:01;;;;;;;43.45;19.95;;;;;;;4.03;72.00;100461.25;5012730;28;20077;-84
2022/04/29 02:12:30;;;;;;;43.92;19.13;;;;;;;4.07;72.32;100478.63;5012438;28;20042;-85
2022/04/29 02:14:58;;;;;;;50.33;18.92;;;;;;;4.02;72.21;100463.13;5014078;28;20049;-87
2022/04/29 02:17:37;;;;;;;49.00;19.20;;;;;;;4.14;72.04;100482.00;5033664;28;20089;-85
2022/04/29 02:20:04;;;;;;;52.80;19.73;;;;;;;4.20;71.97;100481.88;5017602;28;20041;-84
2022/04/29 02:22:32;;;;;;;49.58;19.95;;;;;;;4.03;72.03;100462.06;5013498;28;20172;-84
2022/04/29 02:24:58;;;;;;;54.63;19.88;;;;;;;4.17;71.96;100476.97;5013628;28;20072;-85
2022/04/29 02:27:25;;;;;;;54.47;20.40;;;;;;;4.03;71.95;100450.44;5012117;28;20038;-86
2022/04/29 02:29:51;;;;;;;54.92;20.27;;;;;;;4.07;72.30;100460.50;5011708;28;20643;-83
2022/04/29 02:32:21;;;;;;;54.05;20.40;;;;;;;4.30;71.92;100480.41;5012204;28;20041;-83
2022/04/29 02:34:47;;;;;;;54.75;19.95;;;;;;;4.27;71.62;100468.19;5011788;28;20530;-84
2022/04/29 02:37:14;;;;;;;55.47;20.67;;;;;;;4.23;71.56;100458.91;5011415;28;20049;-84
2022/04/29 02:39:44;;;;;;;55.00;20.90;;;;;;;4.30;71.48;100469.59;5011476;28;20045;-84
2022/04/29 02:42:10;;;;;;;53.50;22.33;;;;;;;4.26;71.55;100465.75;5012566;28;20049;-84
2022/04/29 02:44:38;;;;;;;59.30;21.67;;;;;;;4.13;71.64;100437.09;5012460;28;20052;-83
2022/04/29 02:47:08;;;;;;;;;;;;;;;4.51;71.30;100485.16;4995339;28;20038;-86
2022/04/29 02:49:41;;;;;;;60.42;20.45;;;;;;;4.34;71.40;100468.88;5012530;28;19921;-84
2022/04/29 02:52:09;;;;;;;56.45;20.23;;;;;;;4.51;71.45;100487.03;4995594;28;20120;-84
2022/04/29 02:54:36;;;;;;;51.45;21.40;;;;;;;4.55;71.50;100490.91;5011970;28;20471;-85
2022/04/29 02:57:06;;;;;;;53.90;20.80;;;;;;;4.62;71.36;100484.25;4995278;28;20034;-86
2022/04/29 02:59:37;;;;;;;51.58;21.23;;;;;;;4.57;71.22;100461.66;5012221;28;20112;-85
2022/04/29 03:02:05;;;;;;;53.15;22.08;;;;;;;4.82;70.89;100488.38;4994915;28;20140;-84
2022/04/29 03:04:32;;;;;;;64.20;21.90;;;;;;;4.79;70.43;100465.28;4995096;28;20470;-87
2022/04/29 03:07:02;;;;;;;59.53;21.20;;;;;;;5.02;70.03;100493.28;5012860;28;20077;-84
2022/04/29 03:09:43;;;;;;;62.63;22.83;;;;;;;4.82;70.20;100462.09;5013163;28;20415;-87
2022/04/29 03:12:12;;;;;;;58.58;21.92;;;;;;;5.04;70.21;100496.59;5012559;28;20042;-86
2022/04/29 03:14:42;;;;;;;60.92;21.92;;;;;;;5.03;70.30;100487.63;5011541;28;20053;-88
2022/04/29 03:18:18;;;;;;;67.15;23.58;;;;;;;4.82;70.57;100482.94;5011236;28;20046;-84
2022/04/29 03:19:59;;;;;;;52.00;22.38;;;;;;;5.04;70.71;100497.41;5012482;28;20140;-85
2022/04/29 03:22:26;;;;;;;59.33;22.83;;;;;;;4.85;70.37;100482.47;5011510;28;20065;-82
2022/04/29 03:24:54;;;;;;;58.83;23.67;;;;;;;5.07;70.59;100505.03;5011687;28;20556;-84
2022/04/29 03:27:20;;;;;;;62.15;24.50;;;;;;;4.94;70.59;100481.81;5011023;28;20527;-85
2022/04/29 03:29:47;;;;;;;56.33;22.88;;;;;;;5.07;70.38;100490.69;5010942;28;20049;-85
2022/04/29 03:32:14;;;;;;;63.30;24.33;;;;;;;5.25;70.56;100514.78;5010753;28;20045;-85
2022/04/29 03:34:59;;;;;;;66.40;23.85;;;;;;;5.24;70.11;100515.06;5010907;28;20499;-85
2022/04/29 03:37:26;;;;;;;53.50;22.63;;;;;;;5.18;70.05;100522.28;5013018;28;20069;-84
2022/04/29 03:39:53;;;;;;;;;;;;;;;5.17;70.09;100523.34;5012746;28;20042;-82
2022/04/29 03:42:21;;;;;;;53.80;22.42;;;;;;;5.19;70.06;100532.03;5012246;28;19952;-85
2022/04/29 03:44:48;;;;;;;58.75;23.20;;;;;;;5.02;70.01;100498.72;5012633;28;20092;-90
2022/04/29 03:47:16;;;;;;;60.42;22.63;;;;;;;5.12;70.12;100504.28;4992603;28;20081;-86
2022/04/29 03:50:01;;;;;;;50.33;21.77;;;;;;;5.23;69.54;100516.09;5006316;28;20478;-81
2022/04/29 03:52:48;;;;;;;62.08;24.00;;;;;;;5.35;69.93;100516.84;4974855;28;20101;-88
2022/04/29 03:55:15;;;;;;;57.38;20.25;;;;;;;5.42;68.71;100536.47;4996372;28;20046;-82
2022/04/29 03:57:43;;;;;;;58.45;22.10;;;;;;;5.22;68.99;100493.59;5010105;28;20045;-81
2022/04/29 04:00:13;;;;;;;50.97;22.23;;;;;;;5.45;68.54;100499.91;4984283;28;20119;-86
2022/04/29 04:02:43;;;;;;;56.05;21.75;;;;;;;5.59;68.59;100512.00;4989056;28;20058;-86
2022/04/29 04:05:10;;;;;;;56.63;22.65;;;;;;;5.47;68.78;100495.88;5018122;28;20124;-88
2022/04/29 04:07:36;;;;;;;;;;;;;;;5.78;68.27;100524.22;5002872;28;20056;-85
2022/04/29 04:10:17;;;;;;;46.58;18.80;;;;;;;5.67;66.86;100514.31;5000447;28;19947;-84
2022/04/29 04:12:47;;;;;;;54.40;18.88;;;;;;;5.74;66.70;100531.22;4996951;28;20601;-82
2022/04/29 04:15:29;;;;;;;58.70;21.58;;;;;;;5.88;67.13;100534.38;5013537;28;20140;-80
2022/04/29 04:17:59;;;;;;;56.35;22.42;;;;;;;5.90;67.22;100515.97;5009089;28;20049;-86
2022/04/29 04:20:27;;;;;;;42.88;16.83;;;;;;;6.02;65.27;100534.84;4984432;28;20058;-80
2022/04/29 04:23:02;;;;;;;52.38;18.63;;;;;;;6.14;64.98;100540.16;5012968;28;20095;-83
2022/04/29 04:25:36;;;;;;;50.33;20.42;;;;;;;6.20;64.98;100537.25;5007066;28;20069;-82
2022/04/29 04:28:13;;;;;;;64.22;22.42;;;;;;;6.23;65.41;100539.47;5007181;28;20037;-78
2022/04/29 04:30:53;;;;;;;55.08;21.30;;;;;;;6.31;65.47;100530.84;4999574;28;20514;-87
2022/04/29 04:33:25;;;;;;;46.92;19.00;;;;;;;6.38;65.24;100541.53;4984127;28;20045;-87
2022/04/29 04:35:52;;;;;;;65.93;21.33;;;;;;;6.39;64.71;100539.63;4985048;28;20038;-83
2022/04/29 04:38:19;;;;;;;57.33;20.92;;;;;;;6.36;64.42;100546.41;4984841;28;20111;-81
2022/04/29 04:41:08;;;;;;;55.78;20.20;;;;;;;6.33;64.98;100525.19;5016639;28;20046;-80
2022/04/29 04:43:37;;;;;;;57.55;20.67;;;;;;;6.56;64.84;100537.66;5013079;28;20060;-81
2022/04/29 04:46:06;;;;;;;65.45;21.15;;;;;;;6.58;63.95;100547.16;5024042;28;20038;-81
2022/04/29 04:48:50;;;;;;;48.25;19.42;;;;;;;6.64;63.04;100544.50;5019378;28;20049;-81
2022/04/29 04:51:35;;;;;;;45.15;19.13;;;;;;;6.67;63.29;100542.09;5015587;28;20046;-81
2022/04/29 04:54:06;;;;;;;47.75;18.00;;;;;;;6.62;62.68;100550.19;5014020;28;20108;-81
2022/04/29 04:56:32;;;;;;;44.03;17.48;;;;;;;6.74;62.48;100553.56;5013245;28;20052;-82
2022/04/29 04:58:59;;;;;;;56.13;15.85;;;;;;;6.71;61.08;100553.28;5013192;28;20061;-81
2022/04/29 05:01:26;;;;;;;;;;;;;;;6.75;61.89;100555.22;5013462;28;20046;-81
2022/04/29 05:04:10;;;;;;;48.30;17.38;;;;;;;6.82;61.30;100544.97;5014469;28;19976;-81
2022/04/29 05:06:55;;;;;;;47.17;15.30;;;;;;;6.86;60.55;100539.03;5014241;28;20072;-80
2022/04/29 05:09:22;;;;;;;36.55;13.48;;;;;;;6.99;57.97;100546.75;5014022;28;20510;-80
2022/04/29 05:11:49;;;;;;;34.13;13.87;;;;;;;7.09;56.88;100549.56;5012056;28;20037;-80
2022/04/29 05:14:34;;;;;;;37.55;13.50;;;;;;;7.13;55.73;100538.97;5012610;28;20532;-81
2022/04/29 05:17:02;;;;;;;51.25;16.10;;;;;;;7.18;57.58;100547.97;5013843;28;20045;-79
2022/04/29 05:19:43;;;;;;;38.95;13.90;;;;;;;7.10;56.07;100551.19;5013487;28;20057;-80
2022/04/29 05:22:15;;;;;;;35.47;14.85;;;;;;;7.18;55.79;100545.25;5012312;28;20041;-79
2022/04/29 05:24:42;;;;;;;43.95;16.50;;;;;;;7.13;56.98;100528.91;5012278;28;20450;-82
2022/04/29 05:27:26;;;;;;;32.80;11.13;;;;;;;7.13;50.02;100547.13;5013726;28;20419;-79
2022/04/29 05:30:30;;;;;;;41.63;13.68;;;;;;;7.19;54.13;100549.63;4991639;28;20507;-79
2022/04/29 05:33:15;;;;;;;53.30;14.90;;;;;;;7.29;52.26;100544.25;5012234;28;20096;-78
2022/04/29 05:36:00;;;;;;;36.05;13.75;;;;;;;7.38;52.62;100538.31;5012075;28;20041;-78
2022/04/29 05:44:09;;;;;;;32.53;12.25;;;;;;;7.57;48.27;100525.94;5012993;28;20125;-80
2022/04/29 05:46:35;;;;;;;;;;;;;;;7.69;49.13;100534.72;5012303;28;20095;-79
2022/04/29 05:49:04;;;;;;;46.25;14.70;;;;;;;7.69;51.79;100531.19;5013312;28;19921;-78
2022/04/29 05:51:35;;;;;;;40.63;14.82;;;;;;;7.70;50.75;100539.06;4995631;28;20111;-80
2022/04/29 05:54:02;;;;;;;32.03;11.57;;;;;;;7.75;48.63;100532.88;5012969;28;20419;-78
2022/04/29 05:56:29;;;;;;;33.80;11.47;;;;;;;7.83;47.38;100524.19;5013303;28;20128;-79
2022/04/29 05:58:56;;;;;;;32.50;11.45;;;;;;;7.96;47.68;100529.13;5016355;28;20145;-80
2022/04/29 06:01:42;;;;;;;;;;;;;;;7.95;49.29;100543.03;5014601;28;20080;-79
2022/04/29 06:04:09;;;;;;;23.15;7.72;;;;;;;7.82;40.72;100540.78;5013416;28;19921;-83
2022/04/29 06:06:39;;;;;;;24.10;8.48;;;;;;;8.00;41.74;100538.41;5011736;28;20056;-79
2022/04/29 06:09:12;;;;;;;29.23;10.63;;;;;;;8.08;49.47;100539.81;5012784;28;20048;-79
2022/04/29 06:11:39;;;;;;;35.00;9.05;;;;;;;8.13;45.76;100533.56;5011498;28;20124;-79
2022/04/29 06:14:07;;;;;;;31.40;8.77;;;;;;;8.27;44.21;100531.97;5011332;28;20053;-78
2022/04/29 06:16:54;;;;;;;29.73;8.30;;;;;;;8.22;42.23;100538.22;5012401;28;20392;-79
2022/04/29 06:19:39;;;;;;;26.02;8.32;;;;;;;8.19;41.56;100533.31;5012319;28;20037;-79
2022/04/29 06:22:11;;;;;;;22.13;9.48;;;;;;;8.35;41.09;100536.09;5010318;28;20049;-79
2022/04/29 06:24:44;;;;;;;29.85;7.65;;;;;;;8.24;40.83;100537.94;4994935;28;20042;-79
2022/04/29 06:27:11;;;;;;;19.40;8.38;;;;;;;8.22;42.62;100530.06;5012374;28;20038;-78
2022/04/29 06:29:38;;;;;;;85.75;11.32;;;;;;;8.26;41.95;100522.16;5010986;28;20132;-79
2022/04/29 06:32:05;;;;;;;21.63;8.52;;;;;;;8.43;40.43;100525.50;5011247;28;20041;-78
2022/04/29 06:34:50;;;;;;;18.63;7.65;;;;;;;8.45;42.80;100527.97;5012117;28;20049;-80
2022/04/29 06:37:17;;;;;;;21.03;7.60;;;;;;;8.49;41.69;100534.53;5012310;28;20034;-78
2022/04/29 06:39:44;;;;;;;22.42;8.15;;;;;;;8.46;39.29;100530.41;5012486;28;20049;-79
2022/04/29 06:42:48;;;;;;;19.77;6.43;;;;;;;8.47;37.43;100523.88;5010785;28;20053;-80
2022/04/29 06:45:32;;;;;;;15.63;5.45;;;;;;;8.62;37.02;100514.91;5012423;28;20069;-79
2022/04/29 06:48:26;;;;;;;15.32;4.80;;;;;;;8.51;33.95;100513.28;5011879;28;20502;-85
2022/04/29 06:51:05;;;;;;;17.00;4.40;;;;;;;8.62;33.56;100509.47;5011782;28;20121;-80
2022/04/29 06:53:47;;;;;;;11.93;4.47;;;;;;;8.69;31.13;100512.75;5010758;28;20034;-79
2022/04/29 06:56:17;;;;;;;14.27;4.63;;;;;;;8.69;33.17;100515.47;4995031;28;20137;-80
2022/04/29 06:58:43;;;;;;;14.10;4.60;;;;;;;8.79;32.23;100516.56;5010945;28;20058;-80
2022/04/29 07:01:10;;;;;;;7.47;3.60;;;;;;;8.92;33.99;100513.31;5010512;28;20053;-80
2022/04/29 07:03:38;;;;;;;11.03;3.83;;;;;;;8.86;33.34;100503.50;5010594;28;20137;-79
2022/04/29 07:06:06;;;;;;;6.72;3.42;;;;;;;8.83;30.08;100513.03;5012446;28;20081;-80
2022/04/29 07:08:35;;;;;;;8.60;3.47;;;;;;;8.85;30.52;100516.31;4998053;28;20484;-78
2022/04/29 07:11:20;;;;;;;10.57;4.93;;;;;;;8.94;31.22;100516.59;4988805;28;20042;-81
2022/04/29 07:13:54;;;;;;;5.45;2.22;;;;;;;9.04;27.01;100513.88;5016545;28;20136;-80
2022/04/29 07:16:23;;;;;;;6.57;2.38;;;;;;;9.08;27.68;100511.41;4992524;28;20180;-79
2022/04/29 07:19:09;;;;;;;6.95;2.22;;;;;;;9.13;27.15;100500.47;5000396;28;20058;-80
2022/04/29 07:21:37;;;;;;;4.93;2.47;;;;;;;9.25;29.23;100511.13;4990692;28;20053;-80
2022/04/29 07:24:04;;;;;;;13.02;3.63;;;;;;;9.30;28.48;100511.09;4994180;28;20088;-80
2022/04/29 07:26:39;;;;;;;11.30;3.17;;;;;;;9.38;29.77;100521.47;5004297;28;20449;-80
2022/04/29 07:29:07;;;;;;;11.20;2.72;;;;;;;9.43;27.47;100510.53;4966282;28;20051;-79
2022/04/29 07:31:40;;;;;;;8.63;2.58;;;;;;;9.38;26.09;100510.56;5005697;28;20037;-80
2022/04/29 07:43:08;;;;;;;10.70;2.40;;;;;;;9.79;27.91;100502.25;5003146;28;20033;-80
2022/04/29 07:45:36;;;;;;;5.22;2.60;;;;;;;9.77;27.71;100507.19;5025609;28;20491;-79
2022/04/29 07:48:44;;;;;;;8.40;2.97;;;;;;;9.70;26.79;100498.44;4974194;28;20057;-79
2022/04/29 07:51:11;;;;;;;7.47;2.40;;;;;;;9.83;28.17;100504.16;4990023;28;20687;-80
2022/04/29 07:53:41;;;;;;;5.72;2.35;;;;;;;9.86;25.66;100500.03;4997654;28;20053;-80
2022/04/29 07:56:09;;;;;;;7.93;2.60;;;;;;;9.99;27.21;100498.63;5006582;28;20136;-79
2022/04/29 07:58:38;;;;;;;28.42;3.33;;;;;;;10.16;27.92;100501.00;4981589;28;20119;-80
2022/04/29 08:01:09;;;;;;;7.55;2.80;;;;;;;10.25;26.46;100491.94;4991178;28;20054;-79
2022/04/29 08:03:39;;;;;;;11.73;2.60;;;;;;;10.39;27.13;100488.59;4989852;28;20125;-80
2022/04/29 08:06:10;;;;;;;6.30;2.47;;;;;;;10.36;25.80;100484.50;5023599;28;20049;-80
2022/04/29 08:08:41;;;;;;;7.53;2.55;;;;;;;10.46;27.21;100489.09;4995191;28;20157;-81
2022/04/29 08:11:16;;;;;;;7.88;2.80;;;;;;;10.60;27.13;100498.31;5006875;28;20069;-81
2022/04/29 08:14:01;;;;;;;8.32;2.90;;;;;;;10.65;25.91;100495.53;4999974;28;20042;-80
2022/04/29 08:16:48;;;;;;;15.13;3.73;;;;;;;10.63;23.68;100478.63;4997830;28;20046;-80
2022/04/29 08:19:51;;;;;;;8.68;2.42;;;;;;;10.63;24.74;100483.25;5028324;28;20077;-80
2022/04/29 08:22:19;;;;;;;5.55;2.55;;;;;;;10.62;25.92;100490.63;5038987;28;20053;-80
2022/04/29 08:24:48;;;;;;;12.77;3.70;;;;;;;10.66;26.09;100469.00;5042753;28;20049;-80
2022/04/29 08:27:16;;;;;;;20.10;3.50;;;;;;;10.92;25.79;100473.16;5039375;28;20110;-79
2022/04/29 08:29:42;;;;;;;6.35;3.00;;;;;;;11.02;26.43;100484.00;5040306;28;20033;-79
2022/04/29 08:32:09;;;;;;;13.85;3.00;;;;;;;10.90;24.34;100467.19;5042261;28;20183;-80
2022/04/29 08:34:39;;;;;;;23.17;3.50;;;;;;;11.08;24.74;100473.84;5022106;28;20056;-80
2022/04/29 08:37:07;;;;;;;10.93;2.92;;;;;;;10.95;25.88;100474.50;5041084;28;20045;-79
2022/04/29 08:39:42;;;;;;;8.25;3.35;;;;;;;11.11;27.23;100467.00;5020194;28;20046;-81
2022/04/29 08:42:13;;;;;;;12.20;3.88;;;;;;;11.16;26.72;100469.66;5021468;28;20053;-78
2022/04/29 08:44:44;;;;;;;8.95;3.17;;;;;;;11.13;27.31;100449.19;4996911;28;20518;-78
2022/04/29 08:47:38;;;;;;;6.35;2.58;;;;;;;11.23;26.86;100454.56;5013218;28;21025;-79
2022/04/29 08:50:15;;;;;;;5.75;3.05;;;;;;;11.24;26.85;100461.66;5025019;28;20437;-78
2022/04/29 08:52:49;;;;;;;8.80;3.20;;;;;;;11.20;27.45;100449.66;5019204;28;20045;-78
2022/04/29 09:00:54;;;;;;;12.70;3.10;;;;;;;11.33;25.82;100458.28;4999676;28;20534;-82
2022/04/29 09:03:23;;;;;;;17.20;3.60;;;;;;;11.47;25.75;100432.66;5007064;28;20096;-79
2022/04/29 09:05:55;;;;;;;6.30;2.60;;;;;;;11.33;25.10;100444.59;5003048;28;20459;-78
2022/04/29 09:08:24;;;;;;;7.55;2.90;;;;;;;11.27;25.77;100439.19;4980962;28;20045;-79
2022/04/29 09:10:56;;;;;;;9.25;2.97;;;;;;;11.53;26.85;100442.44;4992332;28;20519;-79
2022/04/29 09:13:27;;;;;;;14.77;3.80;;;;;;;11.40;24.91;100442.34;4982846;28;20038;-80
2022/04/29 09:15:58;;;;;;;5.35;2.72;;;;;;;11.61;24.40;100435.50;4992110;28;20077;-79
2022/04/29 09:18:39;;;;;;;9.15;3.05;;;;;;;11.97;25.46;100432.34;5001962;28;20045;-78
2022/04/29 09:21:10;;;;;;;5.38;2.83;;;;;;;12.24;24.44;100423.47;5009407;28;20077;-81
2022/04/29 09:23:47;;;;;;;14.00;3.75;;;;;;;12.27;23.93;100409.16;4977927;28;20061;-77
2022/04/29 09:26:38;;;;;;;25.98;6.32;;;;;;;12.32;25.49;100414.56;5000828;28;20049;-78
2022/04/29 09:29:41;;;;;;;12.23;4.93;;;;;;;12.36;26.47;100417.53;4978196;28;20038;-76
2022/04/29 09:32:48;;;;;;;32.60;10.52;;;;;;;12.32;25.57;100408.28;4990482;28;20669;-78
2022/04/29 09:35:39;;;;;;;17.27;5.85;;;;;;;12.43;26.75;100391.34;4993409;28;20120;-78
2022/04/29 09:41:07;;;;;;;8.30;2.65;;;;;;;12.52;24.39;100390.69;5010903;28;20042;-80
2022/04/29 09:43:44;;;;;;;43.30;5.30;;;;;;;12.56;23.60;100394.47;4994806;28;20145;-78
2022/04/29 09:46:22;;;;;;;27.10;4.63;;;;;;;12.44;23.15;100392.97;4983680;28;20097;-78
2022/04/29 09:48:59;;;;;;;9.95;2.58;;;;;;;12.12;24.00;100391.03;4983932;28;20038;-81
2022/04/29 09:51:43;;;;;;;15.65;3.20;;;;;;;12.52;24.92;100397.00;4997962;28;20110;-82
2022/04/29 09:54:40;;;;;;;9.85;3.05;;;;;;;12.87;25.33;100387.31;4996537;28;20049;-81
2022/04/29 09:57:14;;;;;;;5.95;2.60;;;;;;;12.88;23.97;100380.72;4991277;28;20054;-84
2022/04/29 09:59:54;;;;;;;9.80;2.72;;;;;;;12.66;23.31;100364.91;4992622;28;20042;-84
2022/04/29 10:02:23;;;;;;;5.80;3.03;;;;;;;12.61;23.97;100351.28;4985332;28;20049;-84
2022/04/29 10:04:55;;;;;;;15.02;2.83;;;;;;;12.80;24.77;100392.38;4999651;28;20045;-85
2022/04/29 10:07:25;;;;;;;5.55;2.60;;;;;;;12.98;24.37;100376.16;4993725;28;20049;-85
2022/04/29 10:10:03;;;;;;;9.60;3.53;;;;;;;13.07;25.50;100357.84;4992256;28;20046;-84
2022/04/29 10:12:33;;;;;;;6.05;2.78;;;;;;;13.04;24.49;100369.44;5004879;28;20046;-83
2022/04/29 10:15:23;;;;;;;9.38;3.38;;;;;;;13.10;25.66;100393.75;4997569;28;20458;-83
2022/04/29 10:21:16;;;;;;;8.13;3.17;;;;;;;12.66;24.03;100381.38;4995536;28;20144;-82
2022/04/29 10:23:49;;;;;;;12.48;3.10;;;;;;;12.38;24.91;100380.50;4991831;28;20045;-81
2022/04/29 10:26:20;;;;;;;8.13;2.92;;;;;;;12.37;24.25;100373.34;5008935;28;20470;-81
2022/04/29 10:28:52;;;;;;;8.43;3.00;;;;;;;12.27;24.03;100376.25;4982302;28;20040;-83
2022/04/29 10:31:23;;;;;;;22.17;3.63;;;;;;;12.08;25.12;100364.50;5002062;28;20770;-83
2022/04/29 10:33:53;;;;;;;8.70;2.70;;;;;;;11.84;23.58;100365.38;4988605;28;20061;-84
2022/04/29 10:36:26;;;;;;;10.23;3.33;;;;;;;12.02;25.07;100372.00;4974777;28;20935;-82
2022/04/29 10:39:02;;;;;;;;;;;;;;;12.24;23.86;100368.63;4980023;28;20506;-82
2022/04/29 10:41:35;;;;;;;10.23;3.90;;;;;;;12.28;24.67;100366.91;4993029;28;19921;-83
2022/04/29 10:44:03;;;;;;;6.82;2.85;;;;;;;12.28;25.04;100353.19;4989011;28;20042;-82
2022/04/29 10:46:43;;;;;;;7.00;3.25;;;;;;;12.01;24.84;100369.53;4990349;28;20115;-82
2022/04/29 10:49:35;;;;;;;6.43;3.00;;;;;;;11.72;23.96;100357.59;4976549;28;20049;-81
2022/04/29 10:52:26;;;;;;;6.38;2.90;;;;;;;11.67;25.47;100356.84;4997988;28;20050;-76
2022/04/29 10:55:23;;;;;;;10.90;3.05;;;;;;;11.67;25.75;100359.56;5004859;28;20554;-78
2022/04/29 10:58:22;;;;;;;9.38;3.28;;;;;;;11.81;24.55;100360.47;4985772;28;20100;-80
2022/04/29 11:00:56;;;;;;;9.00;3.20;;;;;;;12.12;24.95;100349.91;4992211;28;20046;-78
2022/04/29 11:03:40;;;;;;;11.05;3.17;;;;;;;12.62;24.72;100343.88;4979013;28;20054;-80
2022/04/29 11:06:09;;;;;;;9.73;3.53;;;;;;;12.85;24.15;100348.41;4972456;28;20128;-80
2022/04/29 11:08:42;;;;;;;7.47;3.20;;;;;;;13.02;22.87;100339.56;4966766;28;20047;-79
2022/04/29 11:11:11;;;;;;;7.97;2.75;;;;;;;12.98;23.25;100348.69;4971340;28;20100;-79
2022/04/29 11:14:05;;;;;;;6.32;2.90;;;;;;;13.06;22.69;100335.09;4996588;28;20538;-78
2022/04/29 11:16:52;;;;;;;6.28;3.00;;;;;;;12.99;23.92;100333.88;4977188;28;20077;-80
2022/04/29 11:19:47;;;;;;;7.72;3.03;;;;;;;12.74;24.51;100335.16;4966913;28;20092;-80
2022/04/29 11:25:07;;;;;;;22.77;4.15;;;;;;;12.62;24.31;100325.50;4995101;28;20035;-79
2022/04/29 11:27:53;;;;;;;7.65;3.15;;;;;;;12.51;23.35;100320.47;4981880;28;20499;-80
2022/04/29 11:30:39;;;;;;;16.50;3.65;;;;;;;12.56;23.24;100325.88;4989914;28;20136;-80
2022/04/29 11:33:13;;;;;;;13.27;3.60;;;;;;;12.69;22.13;100322.34;4983726;28;20046;-79
2022/04/29 11:35:40;;;;;;;17.60;3.88;;;;;;;12.88;22.73;100309.38;4990691;28;20056;-77
2022/04/29 11:38:10;;;;;;;;;;;;;;;13.07;24.47;100313.94;4979843;28;20038;-76
2022/04/29 11:40:40;;;;;;;9.77;3.53;;;;;;;13.08;24.16;100307.34;5000071;28;20310;-77
2022/04/29 11:43:11;;;;;;;7.38;3.50;;;;;;;12.86;24.21;100297.06;4966357;28;20145;-78
2022/04/29 11:45:40;;;;;;;8.77;3.17;;;;;;;12.90;23.54;100309.06;4972817;28;20034;-79
2022/04/29 11:48:08;;;;;;;16.85;6.43;;;;;;;13.06;22.76;100302.16;4972766;28;20074;-79
2022/04/29 11:50:37;;;;;;;14.00;6.15;;;;;;;13.06;23.21;100302.16;4969129;28;20042;-79
2022/04/29 11:53:07;;;;;;;12.75;4.57;;;;;;;13.21;23.16;100298.28;4981745;28;20084;-79
2022/04/29 11:55:34;;;;;;;10.32;3.90;;;;;;;13.23;22.40;100296.03;4979488;28;20054;-78
2022/04/29 11:58:01;;;;;;;10.55;3.97;;;;;;;13.23;23.07;100296.03;4981268;28;20042;-78
2022/04/29 12:00:31;;;;;;;12.43;3.92;;;;;;;13.11;22.56;100288.34;4988891;28;20107;-79
2022/04/29 12:02:59;;;;;;;9.30;3.75;;;;;;;13.23;23.69;100284.25;4953349;28;20050;-79
2022/04/29 12:05:33;;;;;;;8.00;2.70;;;;;;;13.28;23.78;100287.75;4985902;28;20105;-80
2022/04/29 12:08:05;;;;;;;8.23;3.30;;;;;;;13.22;23.97;100277.94;4971943;28;20133;-79
2022/04/29 12:10:53;;;;;;;6.95;3.20;;;;;;;13.03;23.64;100274.50;4954545;28;20043;-81
2022/04/29 12:13:21;;;;;;;9.43;3.00;;;;;;;12.82;23.34;100263.94;4987011;28;20050;-80
2022/04/29 12:15:54;;;;;;;9.70;3.47;;;;;;;13.00;23.64;100275.09;4971962;28;20043;-80
2022/04/29 12:18:41;;;;;;;6.30;3.13;;;;;;;12.98;22.27;100271.84;4985498;28;20034;-78
2022/04/29 12:21:30;;;;;;;12.75;3.75;;;;;;;13.02;24.91;100275.63;4989585;28;20046;-81